Time;durP1;ratioP1;P1;durP2;ratioP2;P2;SDS_P1;SDS_P2;PMS_P1;PMS_P2;Temp;Humidity;BMP_temperature;BMP_pressure;BME280_temperature;BME280_humidity;BME280_pressure;Samples;Min_cycle;Max_cycle;Signal;HPM_P1;HPM_P2
2024/03/27 00:02:24;;;;;;;7.43;2.40;;;10.30;98.90;;;;;;4948244;28;20032;-65
2024/03/27 00:04:49;;;;;;;9.13;2.70;;;10.30;98.70;;;;;;4953210;28;20046;-65
2024/03/27 00:07:15;;;;;;;8.23;2.60;;;10.40;98.60;;;;;;4956842;28;20011;-64
2024/03/27 00:09:41;;;;;;;8.15;2.70;;;10.40;98.30;;;;;;4963135;28;20031;-64
2024/03/27 00:12:07;;;;;;;6.53;2.50;;;10.40;98.90;;;;;;4959838;28;20027;-65
2024/03/27 00:14:32;;;;;;;6.88;2.70;;;10.30;98.40;;;;;;4954919;28;20035;-65
2024/03/27 00:16:58;;;;;;;6.38;2.42;;;10.30;99.10;;;;;;4956264;28;20031;-65
2024/03/27 00:19:24;;;;;;;7.07;2.60;;;10.30;98.70;;;;;;4955221;28;20031;-65
2024/03/27 00:21:50;;;;;;;6.57;2.58;;;10.20;98.80;;;;;;4957097;28;20043;-64
2024/03/27 00:24:15;;;;;;;8.00;2.60;;;10.20;99.10;;;;;;4952903;28;20039;-65
2024/03/27 00:26:42;;;;;;;8.18;2.92;;;10.20;98.80;;;;;;4949451;28;20047;-64
2024/03/27 00:29:08;;;;;;;6.95;2.42;;;10.20;98.80;;;;;;4947338;28;20077;-65
2024/03/27 00:31:33;;;;;;;7.30;2.70;;;10.20;98.90;;;;;;4955088;28;20093;-65
2024/03/27 00:33:59;;;;;;;7.60;2.50;;;10.20;98.70;;;;;;4944751;28;20035;-64
2024/03/27 00:36:25;;;;;;;7.20;2.63;;;10.10;99.00;;;;;;4951668;28;20038;-64
2024/03/27 00:38:50;;;;;;;6.75;2.47;;;10.10;98.80;;;;;;4942299;28;20035;-64
2024/03/27 00:41:16;;;;;;;7.93;2.53;;;10.20;98.90;;;;;;4952749;28;20032;-65
2024/03/27 00:43:42;;;;;;;7.20;2.53;;;10.30;98.90;;;;;;4953423;28;20034;-64
2024/03/27 00:46:07;;;;;;;7.47;2.83;;;10.20;98.70;;;;;;4940245;28;20028;-64
2024/03/27 00:48:33;;;;;;;8.15;2.50;;;10.30;98.70;;;;;;4946063;28;20023;-64
2024/03/27 00:51:00;;;;;;;6.57;2.58;;;10.30;98.50;;;;;;4940931;29;20115;-64
2024/03/27 00:53:26;;;;;;;6.72;2.58;;;10.30;98.40;;;;;;4947734;28;20071;-65
2024/03/27 00:55:55;;;;;;;7.10;2.45;;;10.40;98.30;;;;;;4942751;28;20093;-63
2024/03/27 00:58:21;;;;;;;8.10;2.67;;;10.40;98.40;;;;;;4950373;28;20023;-64
2024/03/27 01:00:47;;;;;;;6.25;2.50;;;10.40;98.50;;;;;;4944801;29;20050;-65
2024/03/27 01:03:12;;;;;;;8.10;2.58;;;10.40;98.70;;;;;;4958015;28;20128;-64
2024/03/27 01:05:42;;;;;;;7.97;2.80;;;10.40;98.50;;;;;;4968643;28;20078;-65
2024/03/27 01:08:08;;;;;;;7.05;2.70;;;10.50;98.30;;;;;;4951191;28;20106;-65
2024/03/27 01:10:35;;;;;;;7.65;2.67;;;10.50;98.20;;;;;;4939550;29;20063;-65
2024/03/27 01:13:01;;;;;;;7.18;2.80;;;10.50;98.40;;;;;;4949996;29;20027;-65
2024/03/27 01:15:26;;;;;;;7.13;2.50;;;10.40;98.00;;;;;;4942068;28;20533;-65
2024/03/27 01:17:52;;;;;;;8.93;2.50;;;10.50;97.80;;;;;;4937467;28;20046;-65
2024/03/27 01:20:18;;;;;;;8.40;2.92;;;10.50;98.20;;;;;;4940017;28;20058;-65
2024/03/27 01:22:43;;;;;;;6.97;2.50;;;10.50;98.50;;;;;;4951054;28;20370;-65
2024/03/27 01:25:11;;;;;;;8.23;2.42;;;10.40;98.00;;;;;;4957331;28;20473;-65
2024/03/27 01:27:36;;;;;;;6.75;2.50;;;10.50;98.60;;;;;;4944965;28;20035;-65
2024/03/27 01:30:02;;;;;;;6.80;2.63;;;10.50;98.50;;;;;;4945039;28;20620;-64
2024/03/27 01:32:28;;;;;;;9.43;2.40;;;10.50;98.60;;;;;;4945659;28;20027;-65
2024/03/27 01:34:53;;;;;;;8.43;2.42;;;10.60;98.20;;;;;;4943937;28;20019;-65
2024/03/27 01:37:19;;;;;;;7.95;2.58;;;10.60;98.60;;;;;;4960754;28;20092;-65
2024/03/27 01:39:45;;;;;;;8.68;3.00;;;10.60;98.10;;;;;;4941579;29;20032;-65
2024/03/27 01:42:11;;;;;;;7.30;2.95;;;10.60;98.20;;;;;;4945525;29;20052;-65
2024/03/27 01:44:36;;;;;;;7.88;2.53;;;10.60;98.20;;;;;;4945355;29;20043;-66
2024/03/27 01:47:02;;;;;;;8.13;2.67;;;10.50;98.00;;;;;;4948492;28;20087;-66
2024/03/27 01:49:31;;;;;;;8.20;2.70;;;10.50;98.60;;;;;;4946416;28;20027;-65
2024/03/27 01:51:59;;;;;;;6.75;2.40;;;10.60;98.20;;;;;;4942935;28;20494;-66
2024/03/27 01:54:26;;;;;;;8.02;2.53;;;10.60;98.40;;;;;;4940459;28;20055;-65
2024/03/27 01:56:53;;;;;;;10.93;2.47;;;10.60;98.10;;;;;;4951720;28;20181;-65
2024/03/27 01:59:20;;;;;;;8.52;2.65;;;10.60;98.50;;;;;;4947222;28;20102;-65
2024/03/27 02:01:48;;;;;;;7.57;2.33;;;10.60;97.90;;;;;;4951820;29;20451;-65
2024/03/27 02:04:14;;;;;;;6.13;2.25;;;10.60;98.10;;;;;;4946087;29;20486;-66
2024/03/27 02:06:40;;;;;;;6.95;2.38;;;10.60;97.90;;;;;;4948621;29;20154;-67
2024/03/27 02:09:06;;;;;;;6.75;2.40;;;10.60;98.00;;;;;;4940968;29;20471;-66
2024/03/27 02:11:32;;;;;;;7.05;2.50;;;10.60;97.60;;;;;;4943107;28;20027;-66
2024/03/27 02:13:58;;;;;;;7.57;2.58;;;10.60;97.90;;;;;;4935461;29;20170;-66
2024/03/27 02:16:23;;;;;;;6.57;2.25;;;10.60;97.60;;;;;;4941344;29;20070;-66
2024/03/27 02:18:50;;;;;;;7.20;2.33;;;10.60;97.80;;;;;;4948480;28;20046;-65
2024/03/27 02:21:15;;;;;;;6.63;2.20;;;10.50;98.10;;;;;;4940766;29;20027;-65
2024/03/27 02:23:57;;;;;;;7.82;2.60;;;10.40;98.50;;;;;;4963276;28;20017;-65
2024/03/27 02:26:42;;;;;;;6.15;2.38;;;10.40;98.40;;;;;;4943013;28;20151;-66
2024/03/27 02:29:07;;;;;;;6.07;2.38;;;10.30;99.10;;;;;;4940846;29;20039;-66
2024/03/27 02:31:33;;;;;;;8.57;2.72;;;10.20;99.00;;;;;;4944772;29;20027;-66
2024/03/27 02:33:59;;;;;;;7.22;2.67;;;10.10;98.90;;;;;;4947831;28;20036;-66
2024/03/27 02:36:24;;;;;;;6.97;2.67;;;10.10;99.20;;;;;;4956284;28;20031;-65
2024/03/27 02:38:50;;;;;;;7.65;2.40;;;10.10;99.50;;;;;;4943196;29;20039;-65
2024/03/27 02:41:15;;;;;;;8.00;2.55;;;10.10;99.60;;;;;;4949523;28;20376;-65
2024/03/27 02:43:41;;;;;;;6.25;2.30;;;9.90;99.70;;;;;;4944822;28;20089;-66
2024/03/27 02:46:07;;;;;;;7.85;2.20;;;9.80;99.90;;;;;;4948325;29;20471;-65
2024/03/27 02:48:32;;;;;;;8.45;2.65;;;9.70;99.90;;;;;;4950122;28;20379;-66
2024/03/27 02:50:58;;;;;;;6.28;2.08;;;9.60;99.90;;;;;;4956212;28;20042;-67
2024/03/27 02:53:24;;;;;;;6.45;2.40;;;9.40;99.90;;;;;;4957514;28;20080;-65
2024/03/27 02:55:50;;;;;;;6.65;2.38;;;9.40;99.90;;;;;;4966443;28;20031;-66
2024/03/27 02:58:16;;;;;;;7.75;2.67;;;9.30;99.90;;;;;;4953814;28;20039;-66
2024/03/27 03:00:42;;;;;;;6.97;2.35;;;9.10;99.90;;;;;;4951346;28;20463;-66
2024/03/27 03:03:07;;;;;;;6.72;2.17;;;9.10;99.90;;;;;;4962062;28;20026;-66
2024/03/27 03:05:33;;;;;;;7.45;2.47;;;9.00;99.90;;;;;;4948063;28;20466;-66
2024/03/27 03:07:59;;;;;;;7.68;2.30;;;8.90;99.90;;;;;;4944103;28;20077;-66
2024/03/27 03:10:26;;;;;;;6.22;2.33;;;8.90;99.90;;;;;;4945123;28;20383;-65
2024/03/27 03:12:52;;;;;;;7.20;2.42;;;9.00;99.90;;;;;;4943805;29;20509;-65
2024/03/27 03:15:17;;;;;;;8.05;2.30;;;9.00;99.90;;;;;;4945635;29;20039;-65
2024/03/27 03:17:43;;;;;;;7.22;2.72;;;9.00;99.90;;;;;;4945689;28;20031;-65
2024/03/27 03:20:09;;;;;;;6.07;2.10;;;9.20;99.90;;;;;;4953040;28;20036;-64
2024/03/27 03:22:35;;;;;;;7.43;2.97;;;9.40;99.90;;;;;;4947684;29;20054;-64
2024/03/27 03:25:01;;;;;;;8.40;2.70;;;9.40;99.90;;;;;;4954613;28;20035;-64
2024/03/27 03:27:26;;;;;;;8.05;2.80;;;9.50;99.90;;;;;;4948542;28;20027;-65
2024/03/27 03:29:52;;;;;;;6.47;2.67;;;9.70;99.90;;;;;;4949986;28;20032;-65
2024/03/27 03:32:17;;;;;;;6.22;2.47;;;9.90;99.90;;;;;;4946789;28;20035;-65
2024/03/27 03:34:44;;;;;;;8.02;2.72;;;9.90;99.90;;;;;;4945833;28;20362;-65
2024/03/27 03:37:10;;;;;;;9.98;2.90;;;9.70;99.90;;;;;;4944875;29;20107;-65
2024/03/27 03:39:36;;;;;;;8.20;2.80;;;9.70;99.90;;;;;;4955503;28;20055;-65
2024/03/27 03:42:02;;;;;;;8.55;3.00;;;9.50;99.90;;;;;;4942989;28;20383;-65
2024/03/27 03:44:27;;;;;;;7.00;2.60;;;9.30;99.90;;;;;;4946273;28;20039;-65
2024/03/27 03:46:53;;;;;;;8.48;2.65;;;9.30;99.90;;;;;;4970706;28;20042;-64
2024/03/27 03:49:19;;;;;;;12.80;3.17;;;9.30;99.90;;;;;;4953545;28;20030;-64
2024/03/27 03:51:44;;;;;;;7.63;2.85;;;9.20;99.90;;;;;;4957733;28;20024;-64
2024/03/27 03:54:10;;;;;;;6.78;2.30;;;9.20;99.90;;;;;;4963857;28;20063;-64
2024/03/27 03:56:35;;;;;;;8.35;2.83;;;9.20;99.90;;;;;;4963807;28;20033;-64
2024/03/27 03:59:01;;;;;;;6.40;2.53;;;9.20;99.90;;;;;;4964179;28;20070;-64
2024/03/27 04:01:29;;;;;;;5.80;2.47;;;9.10;99.90;;;;;;4952629;28;20028;-64
2024/03/27 04:03:55;;;;;;;7.93;2.90;;;9.00;99.90;;;;;;4944870;29;20024;-64
2024/03/27 04:06:21;;;;;;;8.95;3.00;;;8.90;99.90;;;;;;4946142;28;20030;-64
2024/03/27 04:08:46;;;;;;;7.57;2.65;;;8.90;99.90;;;;;;4950067;28;20115;-64
2024/03/27 04:11:12;;;;;;;6.55;2.42;;;8.80;99.90;;;;;;4944246;29;20471;-64
2024/03/27 04:13:37;;;;;;;8.02;2.70;;;8.70;99.90;;;;;;4950420;28;20062;-64
2024/03/27 04:16:04;;;;;;;9.88;2.60;;;8.70;99.90;;;;;;4951488;28;20520;-64
2024/03/27 04:18:30;;;;;;;8.48;3.00;;;8.70;99.90;;;;;;4942170;28;20081;-64
2024/03/27 04:20:55;;;;;;;7.90;3.13;;;8.70;99.90;;;;;;4945038;28;20035;-64
2024/03/27 04:23:21;;;;;;;8.07;3.05;;;8.70;99.90;;;;;;4946738;28;20049;-65
2024/03/27 04:25:48;;;;;;;7.68;2.63;;;8.60;99.90;;;;;;4951776;28;20090;-65
2024/03/27 04:28:14;;;;;;;8.35;3.00;;;8.60;99.90;;;;;;4951856;28;20028;-65
2024/03/27 04:30:40;;;;;;;7.13;2.50;;;8.50;99.90;;;;;;4950227;29;20062;-65
2024/03/27 04:33:07;;;;;;;7.65;3.20;;;8.20;99.90;;;;;;4942960;29;20020;-65
2024/03/27 04:35:33;;;;;;;6.97;2.67;;;8.00;99.90;;;;;;4944924;28;20092;-65
2024/03/27 04:37:59;;;;;;;10.32;3.00;;;7.80;99.90;;;;;;4940063;28;20031;-65
2024/03/27 04:40:24;;;;;;;7.05;2.70;;;7.70;99.90;;;;;;4946068;28;20034;-65
2024/03/27 04:42:50;;;;;;;6.90;2.72;;;7.70;99.90;;;;;;4942828;28;20475;-65
2024/03/27 04:45:16;;;;;;;13.48;2.90;;;7.70;99.90;;;;;;4948814;29;20034;-65
2024/03/27 04:47:41;;;;;;;7.45;2.78;;;7.80;99.90;;;;;;4942440;28;20066;-65
2024/03/27 04:50:07;;;;;;;8.57;2.67;;;7.80;99.90;;;;;;4939802;29;20093;-65
2024/03/27 04:52:35;;;;;;;9.15;3.08;;;7.80;99.90;;;;;;4942119;29;20430;-65
2024/03/27 04:55:01;;;;;;;9.18;2.80;;;7.80;99.90;;;;;;4944128;29;20601;-65
2024/03/27 04:57:26;;;;;;;8.57;3.15;;;7.80;99.90;;;;;;4939271;29;20060;-65
2024/03/27 04:59:52;;;;;;;6.85;2.70;;;7.90;99.90;;;;;;4943697;28;20093;-65
2024/03/27 05:02:17;;;;;;;8.35;2.60;;;8.00;99.90;;;;;;4943775;29;20043;-65
2024/03/27 05:04:43;;;;;;;8.18;3.13;;;8.00;99.90;;;;;;4939872;28;20557;-65
2024/03/27 05:07:08;;;;;;;7.78;2.88;;;8.10;99.90;;;;;;4943592;28;20081;-64
2024/03/27 05:09:35;;;;;;;9.82;3.47;;;8.20;99.90;;;;;;4950397;28;20035;-64
2024/03/27 05:12:04;;;;;;;8.77;2.67;;;8.40;99.90;;;;;;4942235;29;20028;-64
2024/03/27 05:14:30;;;;;;;12.18;3.03;;;8.50;99.90;;;;;;4940192;28;20042;-64
2024/03/27 05:16:56;;;;;;;7.70;3.13;;;8.60;99.90;;;;;;4940243;28;20027;-64
2024/03/27 05:19:23;;;;;;;8.52;2.80;;;8.60;99.90;;;;;;4941472;28;20042;-64
2024/03/27 05:21:49;;;;;;;7.97;2.80;;;8.70;99.90;;;;;;4940646;29;20055;-64
2024/03/27 05:24:15;;;;;;;6.85;2.38;;;8.80;99.90;;;;;;4943993;28;20055;-64
2024/03/27 05:26:40;;;;;;;7.20;2.90;;;8.90;99.90;;;;;;4945415;28;20110;-64
2024/03/27 05:29:06;;;;;;;8.52;2.85;;;9.00;99.90;;;;;;4941849;29;20027;-64
2024/03/27 05:31:32;;;;;;;9.30;2.67;;;9.00;99.90;;;;;;4938174;28;20162;-64
2024/03/27 05:33:59;;;;;;;10.13;2.97;;;9.10;99.90;;;;;;4941846;28;20517;-64
2024/03/27 05:36:24;;;;;;;7.53;3.00;;;9.10;99.90;;;;;;4942936;28;20152;-64
2024/03/27 05:38:50;;;;;;;7.05;2.80;;;9.20;99.90;;;;;;4944765;28;20110;-63
2024/03/27 05:41:16;;;;;;;8.27;2.92;;;9.10;99.90;;;;;;4936471;28;20025;-66
2024/03/27 05:43:42;;;;;;;7.40;2.70;;;9.20;99.90;;;;;;4945011;29;20058;-64
2024/03/27 05:46:07;;;;;;;12.57;2.88;;;9.20;99.90;;;;;;4941192;28;20024;-64
2024/03/27 05:48:33;;;;;;;8.55;2.80;;;9.20;99.90;;;;;;4943876;28;20027;-64
2024/03/27 05:50:58;;;;;;;9.15;3.30;;;9.20;99.90;;;;;;4961399;28;20038;-64
2024/03/27 05:53:24;;;;;;;7.60;3.03;;;9.20;99.90;;;;;;4941802;28;20089;-64
2024/03/27 05:55:57;;;;;;;8.27;2.88;;;9.30;99.90;;;;;;4948294;28;20036;-64
2024/03/27 05:58:23;;;;;;;10.98;3.10;;;9.30;99.90;;;;;;4938113;28;20463;-64
2024/03/27 06:00:49;;;;;;;11.85;2.97;;;9.30;99.90;;;;;;4946563;28;20027;-63
2024/03/27 06:03:14;;;;;;;7.93;2.92;;;9.40;99.90;;;;;;4941711;29;20038;-64
2024/03/27 06:05:41;;;;;;;8.55;2.70;;;9.40;99.90;;;;;;4943266;28;20415;-64
2024/03/27 06:08:07;;;;;;;8.77;2.95;;;9.40;99.90;;;;;;4943374;28;20432;-65
2024/03/27 06:10:33;;;;;;;8.05;3.30;;;9.40;99.90;;;;;;4936480;28;20036;-65
2024/03/27 06:13:03;;;;;;;11.00;2.95;;;9.50;99.90;;;;;;4944313;29;20020;-64
2024/03/27 06:15:32;;;;;;;10.30;3.20;;;9.50;99.90;;;;;;4940607;28;20054;-64
2024/03/27 06:18:00;;;;;;;6.93;2.55;;;9.60;99.90;;;;;;4945493;28;20050;-65
2024/03/27 06:20:26;;;;;;;7.95;3.10;;;9.60;99.90;;;;;;4948105;29;20106;-65
2024/03/27 06:22:54;;;;;;;9.35;3.10;;;9.70;99.90;;;;;;4951515;28;20359;-64
2024/03/27 06:25:19;;;;;;;9.18;3.00;;;9.70;99.90;;;;;;4956175;28;20456;-65
2024/03/27 06:27:45;;;;;;;9.68;2.67;;;9.70;99.90;;;;;;4952523;28;20042;-65
2024/03/27 06:30:14;;;;;;;8.82;3.40;;;9.80;99.90;;;;;;4970712;28;20073;-64
2024/03/27 06:32:41;;;;;;;7.55;2.90;;;9.80;99.90;;;;;;4952467;28;20035;-65
2024/03/27 06:35:07;;;;;;;8.48;2.90;;;9.90;99.90;;;;;;4942924;28;20233;-65
2024/03/27 06:37:33;;;;;;;19.10;3.38;;;9.90;99.90;;;;;;4962780;28;20032;-65
2024/03/27 06:39:59;;;;;;;8.00;2.85;;;10.00;99.90;;;;;;4956340;28;20109;-64
2024/03/27 06:42:26;;;;;;;7.68;3.13;;;10.00;99.90;;;;;;4947143;28;20035;-65
2024/03/27 06:44:51;;;;;;;9.77;3.20;;;10.00;99.90;;;;;;4943229;28;20027;-65
2024/03/27 06:47:26;;;;;;;9.40;3.28;;;10.00;99.90;;;;;;4947613;28;20035;-65
2024/03/27 06:49:54;;;;;;;10.32;2.78;;;10.10;99.90;;;;;;4944666;28;20031;-65
2024/03/27 06:52:20;;;;;;;10.07;3.15;;;10.10;99.90;;;;;;4951014;28;20524;-65
2024/03/27 06:54:48;;;;;;;8.15;2.72;;;10.20;99.90;;;;;;4953512;28;20071;-66
2024/03/27 06:57:14;;;;;;;9.30;3.15;;;10.20;99.90;;;;;;4948422;28;20107;-65
2024/03/27 06:59:40;;;;;;;7.70;3.05;;;10.20;99.90;;;;;;4963297;28;20046;-65
2024/03/27 07:02:06;;;;;;;9.70;3.30;;;10.30;99.90;;;;;;4944326;28;20089;-65
2024/03/27 07:04:31;;;;;;;8.50;3.22;;;10.40;99.90;;;;;;4946218;28;20027;-65
2024/03/27 07:06:57;;;;;;;10.77;3.50;;;10.40;99.90;;;;;;4946041;28;20386;-65
2024/03/27 07:09:23;;;;;;;8.07;3.53;;;10.50;99.90;;;;;;4947051;29;20040;-66
2024/03/27 07:11:49;;;;;;;10.15;3.97;;;10.50;99.90;;;;;;4946426;28;20522;-65
2024/03/27 07:14:15;;;;;;;8.30;3.05;;;10.50;99.90;;;;;;4949612;28;20034;-66
2024/03/27 07:16:43;;;;;;;9.35;2.97;;;10.60;99.90;;;;;;4956524;28;20031;-65
2024/03/27 07:19:13;;;;;;;9.68;3.50;;;10.60;99.90;;;;;;4948458;28;20030;-65
2024/03/27 07:21:39;;;;;;;9.43;3.42;;;10.70;99.90;;;;;;4956219;28;20036;-66
2024/03/27 07:24:05;;;;;;;7.80;3.13;;;10.70;99.90;;;;;;4963419;28;20034;-66
2024/03/27 07:26:40;;;;;;;9.35;3.15;;;10.80;99.90;;;;;;4946442;28;20068;-63
2024/03/27 07:29:05;;;;;;;8.07;3.10;;;10.80;99.90;;;;;;4961870;28;20352;-66
2024/03/27 07:31:32;;;;;;;8.15;2.78;;;10.80;99.90;;;;;;4941259;28;20040;-66
2024/03/27 07:33:57;;;;;;;9.35;2.70;;;10.80;99.90;;;;;;4955869;28;20055;-66
2024/03/27 07:36:23;;;;;;;8.52;3.10;;;10.90;99.90;;;;;;4964557;28;20421;-66
2024/03/27 07:38:50;;;;;;;8.27;3.00;;;10.90;99.90;;;;;;4947706;28;20038;-66
2024/03/27 07:41:15;;;;;;;10.95;3.10;;;11.00;99.90;;;;;;4942681;29;20026;-66
2024/03/27 07:43:41;;;;;;;8.73;2.90;;;11.00;99.90;;;;;;4941793;28;20019;-67
2024/03/27 07:46:07;;;;;;;10.82;3.30;;;11.20;99.90;;;;;;4940137;28;20106;-66
2024/03/27 07:48:34;;;;;;;9.05;3.05;;;11.30;99.90;;;;;;4951176;28;20031;-66
2024/03/27 07:51:00;;;;;;;9.70;2.97;;;11.40;99.90;;;;;;4940784;28;20051;-66
2024/03/27 07:53:26;;;;;;;8.48;2.83;;;11.50;99.90;;;;;;4948158;28;20104;-65
2024/03/27 07:55:56;;;;;;;8.52;2.92;;;11.60;99.90;;;;;;4952737;28;20024;-64
2024/03/27 07:58:22;;;;;;;7.20;2.55;;;11.80;99.90;;;;;;4951370;28;20115;-65
2024/03/27 08:00:49;;;;;;;6.70;2.97;;;11.80;99.90;;;;;;4946774;28;20024;-64
2024/03/27 08:03:15;;;;;;;9.13;3.03;;;11.90;99.90;;;;;;4945511;28;20571;-65
2024/03/27 08:05:40;;;;;;;7.22;3.05;;;12.00;99.90;;;;;;4942113;28;20059;-65
2024/03/27 08:08:06;;;;;;;8.68;2.72;;;12.00;99.90;;;;;;4949534;28;20027;-64
2024/03/27 08:10:32;;;;;;;9.45;2.70;;;12.10;99.90;;;;;;4946775;28;20074;-64
2024/03/27 08:12:57;;;;;;;6.82;2.50;;;12.20;99.90;;;;;;4945343;28;20051;-64
2024/03/27 08:15:23;;;;;;;7.82;2.65;;;12.20;99.90;;;;;;4949171;28;20035;-65
2024/03/27 08:17:48;;;;;;;8.23;2.35;;;12.30;99.90;;;;;;4946869;28;20134;-64
2024/03/27 08:20:14;;;;;;;6.32;2.50;;;12.40;99.90;;;;;;4939652;28;20077;-65
2024/03/27 08:22:40;;;;;;;18.00;2.85;;;12.40;99.90;;;;;;4947854;28;20111;-68
2024/03/27 08:25:06;;;;;;;247.15;23.15;;;12.40;99.90;;;;;;4960815;28;20031;-61
2024/03/27 08:27:32;;;;;;;460.42;42.67;;;12.40;99.90;;;;;;4933820;28;20093;-60
2024/03/27 08:29:58;;;;;;;1157.85;130.18;;;12.60;99.90;;;;;;4942313;28;20050;-61
2024/03/27 08:32:23;;;;;;;60.22;8.82;;;12.70;99.90;;;;;;4960474;28;20031;-60
2024/03/27 08:34:49;;;;;;;15.38;2.72;;;12.80;99.90;;;;;;4947632;28;20033;-62
2024/03/27 08:37:14;;;;;;;5.82;2.20;;;13.00;99.90;;;;;;4972004;28;20039;-62
2024/03/27 08:39:42;;;;;;;7.47;2.60;;;13.10;99.90;;;;;;4945362;28;20059;-62
2024/03/27 08:42:07;;;;;;;9.05;3.08;;;13.10;99.90;;;;;;4944934;28;20032;-61
2024/03/27 08:44:33;;;;;;;7.03;2.40;;;13.00;99.90;;;;;;4948006;28;20027;-61
2024/03/27 08:46:58;;;;;;;7.75;2.30;;;13.00;99.90;;;;;;4944155;28;20027;-62
2024/03/27 08:49:24;;;;;;;9.27;2.75;;;13.10;99.90;;;;;;4939028;28;20081;-62
2024/03/27 08:51:50;;;;;;;523.30;49.10;;;13.10;99.90;;;;;;4950674;28;20035;-62
2024/03/27 08:54:15;;;;;;;6.68;2.30;;;13.20;99.90;;;;;;4939786;28;20101;-63
2024/03/27 08:56:41;;;;;;;45.75;6.93;;;13.20;99.90;;;;;;4940332;28;20062;-65
2024/03/27 08:59:06;;;;;;;11.70;2.83;;;13.30;99.90;;;;;;4947261;28;20030;-62
2024/03/27 09:01:32;;;;;;;6.65;2.38;;;13.20;99.90;;;;;;4943669;28;20061;-61
2024/03/27 09:03:58;;;;;;;9.43;2.25;;;13.10;99.90;;;;;;4941845;28;20511;-61
2024/03/27 09:06:24;;;;;;;8.75;2.60;;;12.90;99.90;;;;;;4943749;28;20545;-62
2024/03/27 09:08:49;;;;;;;8.00;3.10;;;12.90;99.90;;;;;;4945128;28;20035;-63
2024/03/27 09:11:15;;;;;;;7.82;2.55;;;12.90;99.90;;;;;;4944800;28;20506;-62
2024/03/27 09:13:41;;;;;;;25.13;3.90;;;12.90;99.90;;;;;;4944439;29;20071;-61
2024/03/27 09:16:07;;;;;;;11.02;2.80;;;12.90;99.90;;;;;;4938467;28;20035;-62
2024/03/27 09:18:34;;;;;;;66.97;7.78;;;12.90;99.90;;;;;;4949170;29;20470;-67
2024/03/27 09:21:00;;;;;;;8.68;2.90;;;12.90;99.90;;;;;;4943616;28;20093;-65
2024/03/27 09:23:28;;;;;;;13.27;2.47;;;12.90;99.90;;;;;;4940571;28;20038;-62
2024/03/27 09:25:59;;;;;;;6.93;2.30;;;13.00;99.90;;;;;;4947130;28;20035;-63
2024/03/27 09:28:25;;;;;;;9.10;2.60;;;13.10;99.90;;;;;;4945114;28;20486;-63
2024/03/27 09:30:51;;;;;;;7.55;2.60;;;13.20;99.90;;;;;;4948545;29;20127;-58
2024/03/27 09:33:17;;;;;;;6.82;2.00;;;13.20;99.90;;;;;;4945825;29;20027;-63
2024/03/27 09:35:45;;;;;;;19.05;2.95;;;13.30;99.90;;;;;;4945572;29;20031;-63
2024/03/27 09:38:10;;;;;;;11.52;3.00;;;13.30;99.90;;;;;;4939404;28;20502;-60
2024/03/27 09:40:47;;;;;;;11.30;3.08;;;13.30;99.90;;;;;;4943616;28;20063;-62
2024/03/27 09:43:14;;;;;;;8.93;3.10;;;13.30;99.90;;;;;;4939135;28;20035;-60
2024/03/27 09:45:41;;;;;;;7.60;2.67;;;13.40;99.90;;;;;;4942335;29;20118;-60
2024/03/27 09:48:08;;;;;;;8.05;3.25;;;13.40;99.90;;;;;;4939677;28;20034;-60
2024/03/27 09:50:35;;;;;;;9.02;3.55;;;13.50;99.90;;;;;;4942210;29;20039;-61
2024/03/27 09:53:01;;;;;;;11.05;3.70;;;13.40;99.90;;;;;;4946919;28;20043;-60
2024/03/27 09:55:34;;;;;;;7.93;2.95;;;13.40;99.90;;;;;;4942723;28;20089;-60
2024/03/27 09:58:03;;;;;;;7.05;2.65;;;13.30;99.90;;;;;;4934933;28;20028;-62
2024/03/27 10:00:29;;;;;;;6.73;2.70;;;13.30;99.90;;;;;;4943080;28;20019;-61
2024/03/27 10:02:55;;;;;;;7.97;3.10;;;13.00;99.90;;;;;;4944103;28;20372;-61
2024/03/27 10:05:24;;;;;;;10.98;3.20;;;12.80;99.90;;;;;;4943238;28;20046;-60
2024/03/27 10:07:50;;;;;;;11.03;2.90;;;12.90;99.90;;;;;;4945211;29;20550;-60
2024/03/27 10:10:16;;;;;;;6.43;2.55;;;12.90;99.90;;;;;;4938983;28;20366;-60
2024/03/27 10:12:42;;;;;;;9.43;3.25;;;12.90;99.90;;;;;;4943381;28;20630;-60
2024/03/27 10:15:09;;;;;;;9.68;3.80;;;13.00;99.90;;;;;;4944522;28;20039;-60
2024/03/27 10:17:35;;;;;;;9.82;3.75;;;13.00;99.90;;;;;;4939967;29;20674;-61
2024/03/27 10:20:00;;;;;;;9.77;3.90;;;12.80;99.90;;;;;;4937625;28;20031;-61
2024/03/27 10:22:29;;;;;;;9.15;4.05;;;12.60;99.90;;;;;;4947441;29;20039;-62
2024/03/27 10:24:55;;;;;;;8.25;3.42;;;12.30;99.90;;;;;;4948295;28;20107;-61
2024/03/27 10:27:21;;;;;;;15.07;4.15;;;12.20;99.90;;;;;;4944041;28;20169;-61
2024/03/27 10:29:46;;;;;;;9.68;3.28;;;12.20;99.90;;;;;;4945392;29;20051;-61
2024/03/27 10:32:12;;;;;;;6.90;2.58;;;12.20;99.90;;;;;;4943839;28;20138;-62
2024/03/27 10:34:39;;;;;;;8.38;3.00;;;12.30;99.90;;;;;;4942035;29;20031;-61
2024/03/27 10:37:08;;;;;;;11.98;2.95;;;12.30;99.90;;;;;;4942645;28;20154;-61
2024/03/27 10:39:37;;;;;;;8.85;3.33;;;12.40;99.90;;;;;;4941120;28;20362;-62
2024/03/27 10:42:05;;;;;;;7.60;2.95;;;12.40;99.90;;;;;;4954055;28;20116;-61
2024/03/27 10:44:31;;;;;;;7.00;2.30;;;12.50;99.90;;;;;;4943655;28;20500;-61
2024/03/27 10:46:56;;;;;;;7.60;2.67;;;12.60;99.90;;;;;;4942315;28;20105;-61
2024/03/27 10:49:23;;;;;;;7.20;2.80;;;12.60;99.90;;;;;;4945820;28;20125;-61
2024/03/27 10:51:49;;;;;;;6.10;2.47;;;12.60;99.90;;;;;;4946274;28;20604;-62
2024/03/27 10:54:16;;;;;;;4.60;1.63;;;12.70;99.90;;;;;;4940427;28;20082;-61
2024/03/27 10:56:42;;;;;;;6.45;2.50;;;13.00;99.90;;;;;;4944983;29;20046;-61
2024/03/27 10:59:08;;;;;;;6.35;2.30;;;13.20;99.90;;;;;;4938034;28;20027;-61
2024/03/27 11:01:38;;;;;;;5.40;2.08;;;13.40;99.90;;;;;;4945809;29;20042;-63
2024/03/27 11:04:04;;;;;;;6.63;1.95;;;13.60;99.90;;;;;;4936841;29;20502;-63
2024/03/27 11:06:32;;;;;;;7.40;2.30;;;13.80;99.90;;;;;;4946313;28;20020;-63
2024/03/27 11:08:58;;;;;;;5.45;2.20;;;13.40;99.90;;;;;;4947154;28;20471;-62
2024/03/27 11:11:23;;;;;;;7.38;2.08;;;13.30;99.90;;;;;;4940724;28;20034;-63
2024/03/27 11:13:50;;;;;;;7.28;2.28;;;13.40;99.90;;;;;;4943406;28;20110;-63
2024/03/27 11:16:22;;;;;;;4.95;1.70;;;13.40;99.90;;;;;;4943253;29;20043;-63
2024/03/27 11:18:48;;;;;;;5.90;2.10;;;13.30;99.90;;;;;;4944054;28;20020;-63
2024/03/27 11:21:14;;;;;;;6.18;2.10;;;13.10;99.90;;;;;;4935105;28;20594;-63
2024/03/27 11:23:45;;;;;;;5.82;2.17;;;13.00;99.90;;;;;;4941540;28;20023;-63
2024/03/27 11:26:11;;;;;;;7.63;2.22;;;12.90;99.90;;;;;;4949132;28;20026;-64
2024/03/27 11:28:37;;;;;;;4.28;1.83;;;13.00;99.90;;;;;;4939746;28;20077;-63
2024/03/27 11:31:05;;;;;;;6.25;1.90;;;12.90;99.90;;;;;;4940825;28;20398;-64
2024/03/27 11:33:32;;;;;;;5.65;1.60;;;12.80;99.90;;;;;;4948817;28;20035;-64
2024/03/27 11:35:58;;;;;;;4.82;1.63;;;12.90;99.90;;;;;;4943679;28;20019;-63
2024/03/27 11:38:24;;;;;;;5.93;1.67;;;13.00;99.90;;;;;;4945867;29;20026;-64
2024/03/27 11:40:53;;;;;;;4.18;1.38;;;12.80;99.90;;;;;;4945442;28;20028;-63
2024/03/27 11:43:20;;;;;;;5.90;1.90;;;12.70;99.90;;;;;;4941619;29;20028;-63
2024/03/27 11:45:47;;;;;;;4.20;1.70;;;12.80;99.90;;;;;;4943194;28;20089;-63
2024/03/27 11:48:14;;;;;;;5.25;1.77;;;12.90;99.90;;;;;;4944021;29;20027;-64
2024/03/27 11:50:41;;;;;;;5.32;2.10;;;12.70;99.90;;;;;;4939775;28;20029;-64
2024/03/27 11:53:09;;;;;;;5.55;1.90;;;12.50;99.90;;;;;;4944245;28;20055;-63
2024/03/27 11:55:35;;;;;;;6.65;2.42;;;12.40;99.90;;;;;;4943203;28;20039;-63
2024/03/27 11:58:00;;;;;;;5.45;2.30;;;12.40;99.90;;;;;;4942146;29;20089;-63
2024/03/27 12:00:26;;;;;;;8.35;3.13;;;12.30;99.90;;;;;;4945933;28;20061;-64
2024/03/27 12:02:52;;;;;;;6.28;2.22;;;12.30;99.90;;;;;;4940847;28;20024;-64
2024/03/27 12:05:19;;;;;;;7.40;2.50;;;12.40;99.90;;;;;;4940133;28;20067;-64
2024/03/27 12:07:44;;;;;;;7.50;3.08;;;12.50;99.90;;;;;;4941336;28;20035;-64
2024/03/27 12:10:10;;;;;;;8.18;2.97;;;12.80;99.90;;;;;;4940533;28;20229;-64
2024/03/27 12:12:36;;;;;;;7.93;2.80;;;12.90;99.90;;;;;;4948344;28;20126;-64
2024/03/27 12:15:03;;;;;;;6.85;2.88;;;12.80;99.90;;;;;;4945273;29;20115;-64
2024/03/27 12:17:36;;;;;;;8.98;3.60;;;12.70;99.90;;;;;;4938470;28;20177;-63
2024/03/27 12:20:12;;;;;;;7.28;2.75;;;12.60;99.90;;;;;;4954448;28;20058;-64
2024/03/27 12:22:38;;;;;;;8.23;3.83;;;12.40;99.90;;;;;;4937018;28;20511;-64
2024/03/27 12:25:05;;;;;;;7.80;3.53;;;12.30;99.90;;;;;;4957475;28;20071;-62
2024/03/27 12:27:33;;;;;;;7.75;3.22;;;12.10;99.90;;;;;;4944353;28;20114;-62
2024/03/27 12:29:59;;;;;;;9.13;3.97;;;12.10;99.90;;;;;;4943415;28;20495;-63
2024/03/27 12:32:27;;;;;;;9.60;4.10;;;12.00;99.90;;;;;;4946955;28;20023;-66
2024/03/27 12:34:52;;;;;;;8.68;3.63;;;12.10;99.90;;;;;;4946902;28;20659;-64
2024/03/27 12:37:18;;;;;;;8.60;3.53;;;12.30;99.90;;;;;;4955657;28;20309;-63
2024/03/27 12:39:44;;;;;;;8.48;3.55;;;12.30;99.90;;;;;;4943591;28;20067;-64
2024/03/27 12:42:10;;;;;;;11.10;3.90;;;12.30;99.90;;;;;;4938231;28;20028;-64
2024/03/27 12:44:36;;;;;;;8.15;3.63;;;12.30;99.90;;;;;;4941139;28;20039;-63